Time;durP1;ratioP1;P1;durP2;ratioP2;P2;SDS_P1;SDS_P2;PMS_P1;PMS_P2;Temp;Humidity;BMP_temperature;BMP_pressure;BME280_temperature;BME280_humidity;BME280_pressure;Samples;Min_cycle;Max_cycle;Signal;HPM_P1;HPM_P2
2023/04/13 00:00:47;;;;;;;2.58;0.00;;;6.80;99.90;;;;;;5094771;28;20024;-77
2023/04/13 00:03:15;;;;;;;0.30;0.00;;;6.70;99.90;;;;;;5076390;28;20387;-77
2023/04/13 00:05:42;;;;;;;1.02;0.00;;;6.80;99.90;;;;;;5076939;28;20077;-77
2023/04/13 00:08:11;;;;;;;0.40;0.00;;;6.70;99.90;;;;;;5075845;28;20020;-77
2023/04/13 00:10:40;;;;;;;1.05;0.00;;;6.70;99.90;;;;;;5075701;28;20596;-77
2023/04/13 00:13:07;;;;;;;0.95;0.38;;;6.70;99.90;;;;;;5075902;28;20062;-77
2023/04/13 00:15:35;;;;;;;1.17;0.00;;;6.60;99.90;;;;;;5093828;28;20016;-77
2023/04/13 00:18:02;;;;;;;1.67;0.00;;;6.60;99.90;;;;;;5093883;28;20020;-77
2023/04/13 00:20:28;;;;;;;0.25;0.00;;;6.60;99.90;;;;;;5094620;28;20024;-77
2023/04/13 00:22:53;;;;;;;1.20;0.00;;;6.70;99.90;;;;;;5093739;28;20483;-77
2023/04/13 00:25:19;;;;;;;1.63;0.05;;;6.70;99.90;;;;;;5093864;28;20066;-77
2023/04/13 00:27:45;;;;;;;3.63;0.13;;;6.70;99.90;;;;;;5075464;28;20078;-77
2023/04/13 00:30:15;;;;;;;0.20;0.00;;;6.70;99.90;;;;;;5093597;28;20060;-77
2023/04/13 00:32:42;;;;;;;3.00;0.00;;;6.70;99.90;;;;;;5093490;28;20111;-77
2023/04/13 00:35:09;;;;;;;2.80;0.05;;;6.70;99.90;;;;;;5075376;28;20025;-77
2023/04/13 00:37:36;;;;;;;0.52;0.00;;;6.70;99.90;;;;;;5075270;28;20055;-77
2023/04/13 00:40:03;;;;;;;0.50;0.00;;;6.70;99.90;;;;;;5075119;28;20493;-77
2023/04/13 00:42:30;;;;;;;0.43;0.00;;;6.70;99.90;;;;;;5093341;28;20019;-77
2023/04/13 00:44:55;;;;;;;1.27;0.10;;;6.70;99.90;;;;;;5075221;28;20077;-77
2023/04/13 00:47:26;;;;;;;1.17;0.00;;;6.70;99.90;;;;;;5093269;28;20154;-77
2023/04/13 00:49:57;;;;;;;2.88;0.00;;;6.60;99.90;;;;;;5093406;28;20028;-77
2023/04/13 00:52:22;;;;;;;0.30;0.00;;;6.70;99.90;;;;;;5075080;28;20020;-77
2023/04/13 00:54:55;;;;;;;1.40;0.00;;;6.60;99.90;;;;;;5075160;28;20394;-77
2023/04/13 00:57:23;;;;;;;0.20;0.00;;;6.70;99.90;;;;;;5093222;28;20016;-77
2023/04/13 00:59:49;;;;;;;0.63;0.00;;;6.70;99.90;;;;;;5093338;28;20017;-77
2023/04/13 01:02:15;;;;;;;0.25;0.00;;;6.70;99.90;;;;;;5093202;28;20413;-77
2023/04/13 01:04:44;;;;;;;2.03;0.00;;;6.80;99.90;;;;;;5093211;28;20070;-77
2023/04/13 01:07:13;;;;;;;1.80;0.20;;;6.60;99.90;;;;;;5093132;28;20034;-77
2023/04/13 01:09:54;;;;;;;1.25;0.00;;;6.60;99.90;;;;;;5096897;28;20028;-77
2023/04/13 01:12:40;;;;;;;1.10;0.00;;;6.60;99.90;;;;;;5078823;28;20077;-77
2023/04/13 01:15:11;;;;;;;0.15;0.00;;;6.60;99.90;;;;;;5078855;28;20059;-77
2023/04/13 01:17:40;;;;;;;0.55;0.00;;;6.70;99.90;;;;;;5078930;28;20483;-77
2023/04/13 01:20:15;;;;;;;0.00;0.00;;;6.70;99.90;;;;;;5078828;28;20107;-77
2023/04/13 01:22:56;;;;;;;0.55;0.03;;;6.70;99.90;;;;;;5097024;28;20059;-77
2023/04/13 01:25:31;;;;;;;0.85;0.20;;;6.80;99.90;;;;;;5096816;28;20035;-77
2023/04/13 01:28:01;;;;;;;2.08;0.00;;;6.70;99.90;;;;;;5078657;28;20111;-77
2023/04/13 01:30:28;;;;;;;0.35;0.22;;;6.80;99.90;;;;;;5078524;28;20024;-77
2023/04/13 01:32:54;;;;;;;1.85;0.00;;;6.80;99.90;;;;;;5096613;28;20022;-77
2023/04/13 01:35:21;;;;;;;1.05;0.00;;;6.80;99.90;;;;;;5078492;28;20411;-77
2023/04/13 01:37:49;;;;;;;1.40;0.00;;;6.80;99.90;;;;;;5078369;28;20031;-78
2023/04/13 01:40:15;;;;;;;1.48;0.00;;;7.10;99.90;;;;;;5096348;28;20104;-77
2023/04/13 01:42:41;;;;;;;1.75;0.00;;;6.80;99.90;;;;;;5096523;28;20035;-77
2023/04/13 01:45:16;;;;;;;0.10;0.00;;;6.80;99.90;;;;;;5096539;28;20024;-77
2023/04/13 01:47:53;;;;;;;1.55;0.35;;;6.80;99.90;;;;;;5078295;28;20036;-77
2023/04/13 01:50:28;;;;;;;0.57;0.00;;;6.80;99.90;;;;;;5078307;28;20034;-77
2023/04/13 01:52:59;;;;;;;0.10;0.00;;;6.80;99.90;;;;;;5078265;28;20031;-77
2023/04/13 01:55:25;;;;;;;0.40;0.22;;;6.80;99.90;;;;;;5096960;28;20016;-77
2023/04/13 01:57:53;;;;;;;0.80;0.00;;;6.80;99.90;;;;;;5078322;28;20431;-77
2023/04/13 02:00:22;;;;;;;0.50;0.00;;;6.70;99.90;;;;;;5096346;28;20054;-77
2023/04/13 02:02:47;;;;;;;0.68;0.00;;;8.20;99.90;;;;;;5078126;28;20501;-77
2023/04/13 02:05:16;;;;;;;0.98;0.00;;;6.80;99.90;;;;;;5078006;28;20016;-77
2023/04/13 02:07:43;;;;;;;2.55;0.00;;;6.70;99.90;;;;;;5095983;28;20059;-77
2023/04/13 02:10:10;;;;;;;0.20;0.00;;;6.70;99.90;;;;;;5077877;28;20023;-77
2023/04/13 02:12:36;;;;;;;0.55;0.00;;;6.70;99.90;;;;;;5077998;28;20027;-78
2023/04/13 02:15:02;;;;;;;0.00;0.00;;;6.70;99.90;;;;;;5077945;28;20383;-78
2023/04/13 02:17:28;;;;;;;0.63;0.03;;;6.70;99.90;;;;;;5077534;28;20024;-77
2023/04/13 02:19:55;;;;;;;3.92;0.00;;;6.70;99.90;;;;;;5096165;28;20103;-77
2023/04/13 02:22:21;;;;;;;1.50;0.00;;;6.60;99.90;;;;;;5077800;28;20092;-77
2023/04/13 02:24:50;;;;;;;1.13;0.05;;;6.60;99.90;;;;;;5077709;28;20024;-77
2023/04/13 02:27:16;;;;;;;0.75;0.10;;;6.50;99.90;;;;;;5077599;28;20039;-76
2023/04/13 02:29:43;;;;;;;0.93;0.00;;;6.90;99.90;;;;;;5077627;28;20034;-77
2023/04/13 02:32:09;;;;;;;2.40;0.00;;;6.50;99.90;;;;;;5077512;28;20020;-77
2023/04/13 02:34:34;;;;;;;0.57;0.00;;;6.50;99.90;;;;;;5077984;28;20016;-77
2023/04/13 02:37:01;;;;;;;2.90;0.00;;;;;;;;;;5077592;28;20051;-77
2023/04/13 02:39:27;;;;;;;1.42;0.00;;;6.40;99.90;;;;;;5095792;28;20031;-77
2023/04/13 02:41:52;;;;;;;1.17;0.00;;;7.00;99.90;;;;;;5095506;28;20084;-78
2023/04/13 02:44:18;;;;;;;3.15;0.00;;;6.30;99.90;;;;;;5095406;28;20052;-77
2023/04/13 02:46:44;;;;;;;2.08;0.00;;;6.30;99.90;;;;;;5077169;28;20028;-77
2023/04/13 02:49:09;;;;;;;3.92;0.00;;;6.30;99.90;;;;;;5077284;28;20027;-77
2023/04/13 02:51:35;;;;;;;0.15;0.10;;;6.20;99.90;;;;;;5077452;28;20403;-77
2023/04/13 02:54:02;;;;;;;3.25;0.15;;;7.90;99.90;;;;;;5077136;28;20390;-77
2023/04/13 02:56:29;;;;;;;3.53;0.00;;;6.10;99.90;;;;;;5095635;28;20020;-78
2023/04/13 02:58:56;;;;;;;0.75;0.00;;;6.10;99.90;;;;;;5076987;28;20505;-77
2023/04/13 03:01:23;;;;;;;6.93;1.17;;;6.10;99.90;;;;;;5076952;28;20031;-77
2023/04/13 03:03:49;;;;;;;1.38;0.00;;;6.10;99.90;;;;;;5095497;28;20027;-77
2023/04/13 03:06:16;;;;;;;4.13;0.10;;;6.10;99.90;;;;;;5094895;28;20032;-77
2023/04/13 03:08:42;;;;;;;4.38;0.00;;;6.00;99.90;;;;;;5077064;28;20035;-77
2023/04/13 03:11:08;;;;;;;4.70;0.10;;;6.00;99.90;;;;;;5076675;28;20394;-77
2023/04/13 03:13:34;;;;;;;1.30;0.00;;;6.00;99.90;;;;;;5077498;28;20077;-77
2023/04/13 03:16:03;;;;;;;5.40;0.00;;;6.10;99.90;;;;;;5076663;28;20364;-77
2023/04/13 03:18:29;;;;;;;0.40;0.00;;;6.10;99.90;;;;;;5094638;28;20023;-77
2023/04/13 03:20:54;;;;;;;0.52;0.03;;;6.10;99.90;;;;;;5094818;28;20024;-77
2023/04/13 03:23:20;;;;;;;5.43;0.15;;;6.10;99.90;;;;;;5076379;28;20027;-77
2023/04/13 03:25:46;;;;;;;1.58;0.00;;;6.10;99.90;;;;;;5076505;28;20024;-77
2023/04/13 03:28:11;;;;;;;2.13;0.00;;;6.00;99.90;;;;;;5094389;28;20024;-77
2023/04/13 03:30:37;;;;;;;3.92;0.00;;;6.10;99.90;;;;;;5094423;28;20033;-77
2023/04/13 03:33:02;;;;;;;4.97;0.22;;;6.10;99.90;;;;;;5075439;28;20111;-77
2023/04/13 03:35:28;;;;;;;0.73;0.10;;;6.20;99.90;;;;;;5094967;28;20099;-77
2023/04/13 03:37:54;;;;;;;1.63;0.10;;;6.20;99.90;;;;;;5094327;28;20023;-77
2023/04/13 03:40:20;;;;;;;1.48;0.03;;;6.20;99.90;;;;;;5076026;28;20394;-77
2023/04/13 03:42:49;;;;;;;3.22;0.00;;;6.20;99.90;;;;;;5076096;28;20024;-77
2023/04/13 03:45:14;;;;;;;4.60;0.47;;;6.30;99.90;;;;;;5094233;28;20028;-77
2023/04/13 03:47:40;;;;;;;0.63;0.00;;;6.20;99.90;;;;;;5075953;28;20138;-77
2023/04/13 03:50:06;;;;;;;7.38;0.00;;;6.30;99.90;;;;;;5075975;28;20020;-77
2023/04/13 03:52:32;;;;;;;0.38;0.00;;;6.30;99.90;;;;;;5075813;28;20107;-77
2023/04/13 03:54:57;;;;;;;2.00;0.17;;;6.40;99.90;;;;;;5075932;28;20051;-77
2023/04/13 03:57:23;;;;;;;4.57;0.32;;;6.40;99.90;;;;;;5093955;28;20031;-77
2023/04/13 03:59:48;;;;;;;0.88;0.20;;;6.50;99.90;;;;;;5075712;28;20150;-77
2023/04/13 04:02:14;;;;;;;2.80;0.00;;;6.50;99.90;;;;;;5075749;28;20024;-77
2023/04/13 04:04:39;;;;;;;7.15;0.65;;;6.50;99.90;;;;;;5075811;28;20024;-78
2023/04/13 04:07:05;;;;;;;2.92;0.10;;;6.50;99.90;;;;;;5093761;28;20027;-77
2023/04/13 04:09:31;;;;;;;1.80;0.00;;;6.80;99.90;;;;;;5094285;28;20071;-77
2023/04/13 04:11:59;;;;;;;5.95;0.57;;;6.50;99.90;;;;;;5093743;28;20020;-78
2023/04/13 04:14:24;;;;;;;5.78;0.00;;;6.50;99.90;;;;;;5093730;28;20024;-77
2023/04/13 04:16:53;;;;;;;6.32;0.43;;;6.50;99.90;;;;;;5093697;28;20016;-77
2023/04/13 04:19:18;;;;;;;3.72;0.00;;;6.50;99.90;;;;;;5093738;28;20045;-77
2023/04/13 04:21:45;;;;;;;1.95;0.10;;;6.50;99.90;;;;;;5075599;28;20031;-77
2023/04/13 04:24:19;;;;;;;3.20;0.00;;;6.60;99.90;;;;;;5075453;28;20062;-77
2023/04/13 04:26:49;;;;;;;2.33;0.00;;;6.60;99.90;;;;;;5093599;28;20028;-77
2023/04/13 04:29:16;;;;;;;4.75;0.00;;;6.60;99.90;;;;;;5075519;28;20136;-77
2023/04/13 04:31:43;;;;;;;3.03;0.30;;;6.70;99.90;;;;;;5093417;28;20093;-77
2023/04/13 04:34:09;;;;;;;2.53;0.05;;;6.60;99.90;;;;;;5075583;28;20028;-78
2023/04/13 04:36:40;;;;;;;1.52;0.20;;;6.70;99.90;;;;;;5093368;28;20058;-77
2023/04/13 04:39:07;;;;;;;2.47;0.20;;;6.60;99.90;;;;;;5075177;28;20428;-77
2023/04/13 04:41:36;;;;;;;2.40;0.00;;;6.60;99.90;;;;;;5093910;28;20104;-77
2023/04/13 04:44:05;;;;;;;2.08;0.30;;;6.70;99.90;;;;;;5075101;28;20039;-77
2023/04/13 04:46:30;;;;;;;3.47;0.05;;;6.60;99.90;;;;;;5093384;28;20518;-77
2023/04/13 04:48:59;;;;;;;3.03;0.22;;;7.00;99.90;;;;;;5093431;28;20024;-77
2023/04/13 04:51:26;;;;;;;1.23;0.00;;;6.70;99.90;;;;;;5075251;28;20020;-76
2023/04/13 04:53:52;;;;;;;5.07;0.55;;;6.70;99.90;;;;;;5075137;28;20024;-77
2023/04/13 04:56:18;;;;;;;3.08;0.10;;;6.70;99.90;;;;;;5075104;28;20103;-77
2023/04/13 04:58:43;;;;;;;3.72;0.10;;;6.70;99.90;;;;;;5075420;28;20017;-77
2023/04/13 05:01:09;;;;;;;9.50;0.80;;;6.70;99.90;;;;;;5093173;28;20104;-78
2023/04/13 05:03:35;;;;;;;8.00;0.38;;;6.70;99.90;;;;;;5075278;28;20031;-77
2023/04/13 05:06:00;;;;;;;5.32;0.38;;;6.60;99.90;;;;;;5093223;28;20023;-77
2023/04/13 05:08:27;;;;;;;13.52;1.55;;;6.70;99.90;;;;;;5093042;28;20050;-77
2023/04/13 05:10:52;;;;;;;2.80;0.43;;;6.70;99.90;;;;;;5075027;28;20028;-77
2023/04/13 05:13:18;;;;;;;5.63;0.17;;;6.70;99.90;;;;;;5093177;28;20489;-77
2023/04/13 05:15:44;;;;;;;11.82;0.22;;;6.80;99.90;;;;;;5093082;28;20051;-77
2023/04/13 05:18:11;;;;;;;0.82;0.05;;;;;;;;;;5075003;28;20039;-77
2023/04/13 05:20:40;;;;;;;6.95;0.00;;;6.90;99.90;;;;;;5074747;28;20394;-77
2023/04/13 05:23:06;;;;;;;4.03;0.43;;;7.00;99.90;;;;;;5075015;28;20028;-76
2023/04/13 05:25:31;;;;;;;3.10;0.00;;;7.80;99.90;;;;;;5075421;28;20375;-75
2023/04/13 05:28:00;;;;;;;4.32;0.32;;;6.90;99.90;;;;;;5093845;28;20024;-79
2023/04/13 05:30:25;;;;;;;1.52;0.00;;;6.90;99.90;;;;;;5076965;28;20506;-80
2023/04/13 05:32:51;;;;;;;2.60;0.00;;;6.80;99.90;;;;;;5076865;28;20032;-78
2023/04/13 05:35:17;;;;;;;2.65;0.00;;;6.80;99.90;;;;;;5075866;28;20118;-78
2023/04/13 05:37:43;;;;;;;3.53;0.10;;;6.80;99.90;;;;;;5075968;28;20020;-78
2023/04/13 05:40:12;;;;;;;4.18;0.20;;;6.80;99.90;;;;;;5094364;28;20020;-78
2023/04/13 05:42:39;;;;;;;4.20;0.00;;;6.80;99.90;;;;;;5076657;28;20074;-78
2023/04/13 05:45:08;;;;;;;1.83;0.15;;;6.70;99.90;;;;;;5076940;28;20067;-78
2023/04/13 05:47:34;;;;;;;5.03;0.52;;;6.60;99.90;;;;;;5094622;28;20024;-74
2023/04/13 05:49:59;;;;;;;5.03;0.05;;;6.50;99.90;;;;;;5095401;28;20431;-79
2023/04/13 05:52:25;;;;;;;4.10;0.43;;;6.70;99.90;;;;;;5095161;28;20032;-79
2023/04/13 05:54:51;;;;;;;8.93;0.73;;;6.70;99.90;;;;;;5076523;28;20145;-79
2023/04/13 05:57:19;;;;;;;1.95;0.00;;;6.80;99.90;;;;;;5079270;28;20020;-79
2023/04/13 05:59:45;;;;;;;4.78;0.10;;;6.80;99.90;;;;;;5098376;28;20081;-79
2023/04/13 06:02:11;;;;;;;2.15;0.00;;;6.80;99.90;;;;;;5080429;28;20024;-79
2023/04/13 06:04:36;;;;;;;3.92;0.32;;;6.80;99.90;;;;;;5096609;28;20024;-76
2023/04/13 06:07:02;;;;;;;6.13;0.40;;;6.80;99.90;;;;;;5077635;28;20041;-77
2023/04/13 06:09:28;;;;;;;2.88;0.20;;;6.90;99.90;;;;;;5076891;28;20438;-77
2023/04/13 06:11:54;;;;;;;2.28;0.30;;;6.90;99.90;;;;;;5095101;28;20107;-76
2023/04/13 06:14:21;;;;;;;3.83;0.10;;;6.90;99.90;;;;;;5077979;28;20107;-76
2023/04/13 06:16:46;;;;;;;4.32;0.57;;;7.00;99.90;;;;;;5094524;28;20024;-77
2023/04/13 06:19:12;;;;;;;6.38;0.10;;;7.00;99.90;;;;;;5077956;28;20020;-76
2023/04/13 06:21:37;;;;;;;2.60;0.00;;;7.10;99.90;;;;;;5078462;28;20027;-76
2023/04/13 06:24:03;;;;;;;2.83;0.55;;;7.20;99.90;;;;;;5096061;28;20024;-76
2023/04/13 06:26:29;;;;;;;1.10;0.10;;;7.20;99.90;;;;;;5077764;28;20392;-76
2023/04/13 06:28:55;;;;;;;1.65;0.00;;;7.20;99.90;;;;;;5077732;28;20024;-77
2023/04/13 06:31:22;;;;;;;4.78;0.88;;;7.50;99.90;;;;;;5077723;28;20169;-76
2023/04/13 06:33:48;;;;;;;2.75;0.00;;;7.20;99.90;;;;;;5077639;28;20444;-76
2023/04/13 06:36:14;;;;;;;1.17;0.00;;;7.30;99.90;;;;;;5095726;28;20483;-76
2023/04/13 06:38:40;;;;;;;2.45;0.00;;;7.30;99.90;;;;;;5095482;28;20024;-76
2023/04/13 06:41:05;;;;;;;1.58;0.00;;;7.40;99.90;;;;;;5077718;28;20036;-75
2023/04/13 06:43:31;;;;;;;2.47;0.47;;;7.40;99.90;;;;;;5095643;28;20494;-76
2023/04/13 06:45:58;;;;;;;1.10;0.00;;;7.40;99.90;;;;;;5095441;28;20020;-76
2023/04/13 06:48:24;;;;;;;1.83;0.00;;;7.30;99.90;;;;;;5095340;28;20024;-76
2023/04/13 06:50:51;;;;;;;0.93;0.00;;;7.30;99.90;;;;;;5077090;28;20430;-76
2023/04/13 06:53:16;;;;;;;1.95;0.20;;;7.40;99.90;;;;;;5077602;28;20491;-76
2023/04/13 06:55:43;;;;;;;2.90;0.00;;;7.50;99.90;;;;;;5077151;28;20023;-75
2023/04/13 06:58:10;;;;;;;5.05;0.08;;;7.70;99.90;;;;;;5076943;28;20378;-76
2023/04/13 07:00:36;;;;;;;2.58;0.08;;;7.80;99.90;;;;;;5077093;28;20387;-76
2023/04/13 07:03:02;;;;;;;9.73;0.60;;;7.90;99.90;;;;;;5077132;28;20521;-76
2023/04/13 07:05:28;;;;;;;2.60;0.00;;;7.80;99.90;;;;;;5076833;28;20366;-76
2023/04/13 07:07:53;;;;;;;2.55;0.00;;;7.80;99.90;;;;;;5076778;28;20024;-76
2023/04/13 07:10:19;;;;;;;2.30;0.00;;;7.80;99.90;;;;;;5094809;28;20032;-76
2023/04/13 07:12:45;;;;;;;4.00;0.13;;;7.80;99.90;;;;;;5076550;28;20024;-77
2023/04/13 07:15:10;;;;;;;2.92;0.10;;;8.00;99.90;;;;;;5094850;28;20020;-76
2023/04/13 07:17:36;;;;;;;8.93;0.70;;;8.10;99.90;;;;;;5094646;28;20503;-76
2023/04/13 07:20:03;;;;;;;5.00;0.60;;;8.30;99.90;;;;;;5094706;28;20023;-77
2023/04/13 07:22:32;;;;;;;5.05;0.20;;;8.30;99.90;;;;;;5094605;28;20069;-77
2023/04/13 07:24:58;;;;;;;14.05;0.43;;;8.30;99.90;;;;;;5076758;28;20081;-76
2023/04/13 07:27:24;;;;;;;3.95;0.15;;;8.20;99.90;;;;;;5094636;28;20110;-76
2023/04/13 07:29:54;;;;;;;5.20;0.08;;;8.00;99.90;;;;;;5076604;28;20478;-76
2023/04/13 07:32:20;;;;;;;7.57;0.20;;;7.90;99.90;;;;;;5076354;28;20056;-76
2023/04/13 07:34:46;;;;;;;1.40;0.00;;;7.90;99.90;;;;;;5076882;28;20020;-76
2023/04/13 07:37:11;;;;;;;5.72;0.20;;;7.90;99.90;;;;;;5094332;28;20043;-76
2023/04/13 07:39:37;;;;;;;4.03;1.10;;;8.00;99.90;;;;;;5094148;28;20028;-76
2023/04/13 07:42:03;;;;;;;2.72;0.20;;;8.10;99.90;;;;;;5094287;28;20016;-76
2023/04/13 07:44:29;;;;;;;6.93;1.00;;;8.20;99.90;;;;;;5094221;28;20077;-76
2023/04/13 07:46:55;;;;;;;4.68;0.10;;;8.40;99.90;;;;;;5094325;28;20030;-76
2023/04/13 07:49:22;;;;;;;9.25;0.30;;;8.50;99.90;;;;;;5076062;28;20039;-76
2023/04/13 07:51:48;;;;;;;3.05;0.30;;;8.50;99.90;;;;;;5094001;28;20020;-76
2023/04/13 07:54:15;;;;;;;7.30;0.63;;;8.60;99.90;;;;;;5075931;28;20028;-75
2023/04/13 07:56:40;;;;;;;9.10;0.28;;;8.70;99.90;;;;;;5075798;28;20059;-76
2023/04/13 07:59:06;;;;;;;10.13;0.80;;;8.80;99.90;;;;;;5075837;28;20048;-75
2023/04/13 08:01:32;;;;;;;8.88;0.73;;;8.90;99.90;;;;;;5075914;28;20028;-77
2023/04/13 08:03:57;;;;;;;9.50;1.00;;;9.00;99.90;;;;;;5093893;28;20031;-76
2023/04/13 08:06:23;;;;;;;11.15;0.90;;;8.90;99.90;;;;;;5075614;28;20020;-76
2023/04/13 08:08:48;;;;;;;9.38;0.60;;;8.90;99.90;;;;;;5075708;28;20024;-77
2023/04/13 08:11:14;;;;;;;7.30;0.45;;;8.90;99.90;;;;;;5093811;28;20028;-77
2023/04/13 08:13:40;;;;;;;10.10;0.55;;;9.00;99.90;;;;;;5075521;28;20051;-76
2023/04/13 08:16:07;;;;;;;7.05;0.55;;;9.00;99.90;;;;;;5075722;28;20059;-76
2023/04/13 08:18:33;;;;;;;7.78;0.45;;;9.10;99.90;;;;;;5074925;28;20064;-77
2023/04/13 08:20:58;;;;;;;9.23;0.65;;;9.10;99.90;;;;;;5093639;28;20023;-76
2023/04/13 08:23:26;;;;;;;14.32;1.05;;;9.20;99.90;;;;;;5075507;28;20020;-77
2023/04/13 08:25:51;;;;;;;11.68;0.90;;;9.30;99.90;;;;;;5075504;28;20371;-76
2023/04/13 08:28:17;;;;;;;6.65;0.32;;;9.40;99.90;;;;;;5093555;28;20027;-77
2023/04/13 08:30:44;;;;;;;12.00;0.52;;;9.40;99.90;;;;;;5097272;28;20031;-74
2023/04/13 08:33:10;;;;;;;7.28;0.22;;;9.40;99.90;;;;;;5099581;28;20020;-73
2023/04/13 08:35:38;;;;;;;3.63;0.30;;;9.40;99.90;;;;;;5100551;28;20059;-74
2023/04/13 08:38:04;;;;;;;8.93;0.15;;;9.40;99.90;;;;;;5099975;28;20080;-75
2023/04/13 08:40:35;;;;;;;9.80;0.28;;;9.50;99.90;;;;;;5080853;28;20028;-75
2023/04/13 08:43:01;;;;;;;5.68;0.43;;;10.10;99.90;;;;;;5075351;28;20031;-74
2023/04/13 08:45:27;;;;;;;8.50;1.20;;;9.50;99.90;;;;;;5075211;28;20020;-74
2023/04/13 08:47:52;;;;;;;7.25;0.43;;;9.60;99.90;;;;;;5093247;28;20028;-75
2023/04/13 08:50:19;;;;;;;9.35;0.30;;;9.60;99.90;;;;;;5093313;28;20097;-74
2023/04/13 08:52:45;;;;;;;6.07;0.20;;;9.70;99.90;;;;;;5093151;28;20431;-75
2023/04/13 08:55:11;;;;;;;5.07;0.13;;;9.80;99.90;;;;;;5093336;28;20062;-75
2023/04/13 08:57:38;;;;;;;10.02;0.60;;;9.80;99.90;;;;;;5093145;28;20394;-75
2023/04/13 09:00:16;;;;;;;6.88;0.30;;;9.80;99.90;;;;;;5075195;28;20065;-75
2023/04/13 09:02:47;;;;;;;5.05;0.00;;;9.80;99.90;;;;;;5093281;28;20570;-75
2023/04/13 09:05:19;;;;;;;6.68;0.85;;;9.90;99.90;;;;;;5093719;28;20035;-75
2023/04/13 09:07:55;;;;;;;12.15;0.40;;;10.10;99.90;;;;;;5093099;28;20034;-76
2023/04/13 09:10:21;;;;;;;8.57;0.75;;;10.20;99.90;;;;;;5074944;28;20445;-76
2023/04/13 09:12:46;;;;;;;15.38;0.73;;;10.40;99.90;;;;;;5092946;28;20092;-76
2023/04/13 09:15:16;;;;;;;6.72;0.20;;;10.40;99.90;;;;;;5074888;28;20024;-76
2023/04/13 09:17:42;;;;;;;4.75;0.25;;;10.50;99.90;;;;;;5092759;28;20016;-76
2023/04/13 09:20:21;;;;;;;13.10;0.47;;;10.50;99.90;;;;;;5092818;28;20020;-76
2023/04/13 09:22:48;;;;;;;5.72;0.38;;;10.60;99.90;;;;;;5074801;28;20024;-76
2023/04/13 09:25:28;;;;;;;5.78;0.75;;;10.50;99.90;;;;;;5074763;28;20021;-76
2023/04/13 09:27:55;;;;;;;6.15;0.60;;;10.50;99.90;;;;;;5092794;28;20028;-76
2023/04/13 09:30:22;;;;;;;2.80;0.10;;;10.50;99.90;;;;;;5094520;28;20157;-76
2023/04/13 09:33:03;;;;;;;4.65;0.20;;;10.70;99.90;;;;;;5078372;28;20371;-76
2023/04/13 09:35:30;;;;;;;7.88;0.00;;;10.60;99.90;;;;;;5096584;28;20026;-76
2023/04/13 09:37:56;;;;;;;8.70;0.30;;;10.50;99.90;;;;;;5078285;28;20487;-75
2023/04/13 09:40:22;;;;;;;9.85;0.40;;;10.50;99.90;;;;;;5096186;28;20039;-77
2023/04/13 09:42:56;;;;;;;8.57;0.10;;;10.60;99.90;;;;;;5078196;28;20035;-76
2023/04/13 09:45:22;;;;;;;7.57;0.10;;;10.50;99.90;;;;;;5096331;28;20052;-76
2023/04/13 09:47:48;;;;;;;8.48;0.20;;;10.40;99.90;;;;;;5096347;28;20055;-76
2023/04/13 09:50:17;;;;;;;4.32;0.30;;;10.40;99.90;;;;;;5078251;28;20524;-76
2023/04/13 09:52:46;;;;;;;7.07;0.00;;;10.40;99.90;;;;;;5078188;28;20466;-77
2023/04/13 09:55:16;;;;;;;5.15;0.00;;;10.90;99.90;;;;;;5078097;28;20085;-76
2023/04/13 09:57:42;;;;;;;4.90;0.20;;;10.80;99.90;;;;;;5077976;28;20028;-76
2023/04/13 10:00:16;;;;;;;6.63;0.75;;;11.00;99.90;;;;;;5096184;28;20050;-76
2023/04/13 10:02:42;;;;;;;3.40;0.30;;;;;;;;;;5096735;28;20050;-76
2023/04/13 10:05:08;;;;;;;8.63;1.27;;;10.90;99.90;;;;;;5077895;28;20028;-76
2023/04/13 10:07:36;;;;;;;5.57;0.00;;;10.70;99.90;;;;;;5096107;28;20482;-76
2023/04/13 10:10:02;;;;;;;6.28;0.25;;;10.60;99.90;;;;;;5077947;28;20535;-76
2023/04/13 10:12:30;;;;;;;6.22;1.00;;;10.60;99.90;;;;;;5096014;28;20017;-76
2023/04/13 10:15:09;;;;;;;5.95;0.10;;;10.70;99.90;;;;;;5077861;28;20390;-76
2023/04/13 10:18:07;;;;;;;5.45;0.30;;;10.70;99.90;;;;;;5077663;28;20020;-77
2023/04/13 10:20:34;;;;;;;5.93;0.52;;;10.70;99.90;;;;;;5090695;28;20490;-76
2023/04/13 10:23:01;;;;;;;8.30;1.48;;;10.70;99.90;;;;;;5095772;28;20012;-76
2023/04/13 10:25:27;;;;;;;7.70;0.25;;;10.70;99.90;;;;;;5095752;28;20030;-76
2023/04/13 10:27:59;;;;;;;8.93;0.63;;;10.80;99.90;;;;;;5095643;28;20028;-75
2023/04/13 10:30:25;;;;;;;8.07;0.70;;;10.80;99.90;;;;;;5096140;28;20024;-76
2023/04/13 10:33:05;;;;;;;7.82;0.43;;;10.90;99.90;;;;;;5077446;28;20390;-76
2023/04/13 10:35:35;;;;;;;8.38;0.40;;;10.90;99.90;;;;;;5095548;28;20107;-76
2023/04/13 10:38:02;;;;;;;5.88;0.65;;;;;;;;;;5096071;28;20024;-77
2023/04/13 10:40:27;;;;;;;4.38;0.22;;;11.20;99.90;;;;;;5076603;28;20032;-76
2023/04/13 10:42:53;;;;;;;8.13;0.10;;;11.50;99.90;;;;;;5077222;28;20024;-76
2023/04/13 10:45:27;;;;;;;3.20;0.65;;;11.80;99.90;;;;;;5095366;28;20031;-76
2023/04/13 10:47:54;;;;;;;9.48;1.25;;;12.00;99.90;;;;;;5095193;28;20050;-76
2023/04/13 10:50:26;;;;;;;12.45;0.52;;;12.10;99.90;;;;;;5095731;28;20107;-76
2023/04/13 10:53:05;;;;;;;6.47;0.47;;;11.90;99.90;;;;;;5095726;28;20028;-76
2023/04/13 10:55:32;;;;;;;9.68;0.85;;;11.80;99.90;;;;;;5076961;28;20024;-77
2023/04/13 10:57:59;;;;;;;8.30;0.70;;;11.80;99.90;;;;;;5076929;28;20402;-76
2023/04/13 11:00:28;;;;;;;3.75;0.20;;;11.80;99.90;;;;;;5094969;28;20020;-77
2023/04/13 11:02:56;;;;;;;3.08;0.10;;;11.80;99.90;;;;;;5076872;28;20090;-76
2023/04/13 11:05:23;;;;;;;5.70;0.10;;;11.80;99.90;;;;;;5076847;28;20036;-76
2023/04/13 11:07:49;;;;;;;6.65;0.10;;;11.90;99.90;;;;;;5094913;28;20048;-76
2023/04/13 11:10:25;;;;;;;2.70;0.13;;;11.60;99.90;;;;;;5094842;28;20028;-76
2023/04/13 11:12:53;;;;;;;12.18;0.30;;;11.50;99.90;;;;;;5076596;28;20109;-76
2023/04/13 11:15:26;;;;;;;6.25;0.38;;;11.40;99.90;;;;;;5094759;28;20039;-76
2023/04/13 11:17:59;;;;;;;5.35;0.20;;;11.30;99.90;;;;;;5094603;28;20515;-76
2023/04/13 11:20:33;;;;;;;6.25;0.17;;;11.10;99.90;;;;;;5076776;28;20471;-76
2023/04/13 11:23:01;;;;;;;6.82;0.38;;;11.10;99.90;;;;;;5094606;28;20052;-76
2023/04/13 11:25:27;;;;;;;3.70;0.17;;;11.00;99.90;;;;;;5094579;28;20016;-76
2023/04/13 11:28:00;;;;;;;5.47;0.25;;;10.90;99.90;;;;;;5094516;28;20023;-76
2023/04/13 11:30:27;;;;;;;3.17;0.45;;;10.90;99.90;;;;;;5076358;28;20035;-76
2023/04/13 11:32:53;;;;;;;5.13;0.10;;;10.90;99.90;;;;;;5076154;28;20059;-76
2023/04/13 11:35:22;;;;;;;4.07;0.10;;;10.90;99.90;;;;;;5094413;28;20020;-76
2023/04/13 11:37:51;;;;;;;5.13;1.08;;;10.80;99.90;;;;;;5076461;28;20066;-76
2023/04/13 11:40:20;;;;;;;12.10;0.55;;;11.00;99.90;;;;;;5075891;28;20596;-76
2023/04/13 11:42:57;;;;;;;6.63;0.35;;;11.00;99.90;;;;;;5076056;28;20024;-76
2023/04/13 11:45:27;;;;;;;7.15;0.35;;;11.20;99.90;;;;;;5087688;28;20031;-76
2023/04/13 11:47:57;;;;;;;2.72;0.00;;;11.10;99.90;;;;;;5059504;28;20054;-76
2023/04/13 11:50:23;;;;;;;10.85;0.10;;;11.20;99.90;;;;;;5082196;28;20088;-76
2023/04/13 11:52:51;;;;;;;5.82;0.10;;;11.40;99.90;;;;;;5073083;28;20059;-76
2023/04/13 11:55:18;;;;;;;8.68;1.13;;;11.60;99.90;;;;;;5055954;28;20368;-76
2023/04/13 11:57:44;;;;;;;8.75;1.50;;;11.70;99.90;;;;;;5055634;28;20026;-76
2023/04/13 12:00:18;;;;;;;4.15;0.10;;;11.80;99.90;;;;;;5073691;28;20020;-76
2023/04/13 12:02:45;;;;;;;4.30;0.35;;;12.00;99.90;;;;;;5074218;28;20028;-76
2023/04/13 12:05:24;;;;;;;6.15;0.22;;;12.00;99.90;;;;;;5073687;28;20027;-76
2023/04/13 12:07:52;;;;;;;7.90;0.00;;;12.10;99.90;;;;;;5055457;28;20074;-76
2023/04/13 12:10:25;;;;;;;7.53;0.00;;;12.20;99.90;;;;;;5073450;28;20483;-77
2023/04/13 12:13:02;;;;;;;7.90;0.05;;;11.90;99.90;;;;;;5073419;28;20043;-77
2023/04/13 12:15:30;;;;;;;6.43;0.63;;;11.90;99.90;;;;;;5055538;28;20040;-76
2023/04/13 12:17:58;;;;;;;4.05;0.10;;;11.90;99.90;;;;;;5055527;28;20368;-76
2023/04/13 12:20:24;;;;;;;4.90;0.10;;;11.70;99.90;;;;;;5073326;28;20020;-76
2023/04/13 12:22:51;;;;;;;9.82;0.57;;;11.60;99.90;;;;;;5055414;28;20399;-76
2023/04/13 12:25:21;;;;;;;6.40;0.70;;;11.60;99.90;;;;;;5055385;28;20029;-76
2023/04/13 12:27:53;;;;;;;5.63;0.00;;;11.90;99.90;;;;;;5073474;28;20103;-76
2023/04/13 12:30:21;;;;;;;9.55;0.22;;;12.40;99.90;;;;;;5055355;28;20459;-76
2023/04/13 12:32:50;;;;;;;5.38;0.65;;;12.90;99.90;;;;;;5055228;28;20046;-76
2023/04/13 12:35:18;;;;;;;5.82;0.17;;;12.90;99.90;;;;;;5073259;28;20020;-76
2023/04/13 12:37:44;;;;;;;10.93;1.00;;;12.80;99.90;;;;;;5073007;28;20021;-76
2023/04/13 12:40:13;;;;;;;5.38;0.30;;;12.60;99.90;;;;;;5054989;28;20054;-77
2023/04/13 12:42:40;;;;;;;8.95;0.47;;;12.60;99.90;;;;;;5055174;28;20399;-76
2023/04/13 12:45:07;;;;;;;6.80;0.52;;;12.70;99.90;;;;;;5073155;28;20028;-76
2023/04/13 12:47:32;;;;;;;4.53;0.25;;;12.40;99.90;;;;;;5072985;28;20037;-77
2023/04/13 12:50:01;;;;;;;3.33;0.35;;;12.30;99.90;;;;;;5055126;28;20151;-76
2023/04/13 12:52:28;;;;;;;3.50;0.05;;;12.80;99.90;;;;;;5054957;28;20040;-76
2023/04/13 12:54:56;;;;;;;5.82;0.45;;;12.80;99.90;;;;;;5072973;28;20433;-74
2023/04/13 12:57:22;;;;;;;8.52;0.30;;;12.60;99.90;;;;;;5072827;28;20021;-76